Defoe, Kentucky
Current Conditions -  °F | °C
As of 2:53 PM on Monday 22 Dec 2014 (Local Time) from KFFT Reporting Station
Few Clouds Few Clouds  
Wind Chill: 52°   Ceiling: Unl
Heat Index: 52°   Visibility: 10mi
Dew Point: 40°   Wind: 9mph
Humidity: 63%   Direction: 80°E
Pressure: 29.79"   Gusts: NA
Location:  38.369°N, 85.0622°W
Report Text: KFFT 221953Z AUTO 08008KT 10SM FEW110 11/04 A2979 RMK AO2 SLP092 T01110044
Loading
Personal Weather Stations






























Interactive Weather Map New forecast layout! Learn more

10-Day Weather Forecast

Advertisements
Track Severe Weather on mobile